Time;durP1;ratioP1;P1;durP2;ratioP2;P2;SDS_P1;SDS_P2;PMS_P1;PMS_P2;Temp;Humidity;BMP_temperature;BMP_pressure;BME280_temperature;BME280_humidity;BME280_pressure;Samples;Min_cycle;Max_cycle;Signal;HPM_P1;HPM_P2
2022/06/09 00:00:52;;;;;;;5.50;2.13;;;;;;;21.52;52.17;100588.94;2082598;28;20047;-71
2022/06/09 00:02:16;;;;;;;4.70;1.63;;;;;;;21.53;52.21;100600.56;2085802;28;20103;-72
2022/06/09 00:03:42;;;;;;;4.40;1.70;;;;;;;21.53;52.18;100593.38;2078069;28;20042;-71
2022/06/09 00:05:07;;;;;;;2.22;1.40;;;;;;;21.55;52.17;100593.31;2070758;28;20061;-72
2022/06/09 00:06:34;;;;;;;4.60;1.98;;;;;;;21.62;52.08;100594.88;2078476;28;20527;-72
2022/06/09 00:07:59;;;;;;;4.95;2.00;;;;;;;21.62;52.01;100602.94;2083789;28;20148;-72
2022/06/09 00:09:28;;;;;;;4.22;1.67;;;;;;;21.59;52.10;100598.56;2086170;28;20068;-71
2022/06/09 00:10:55;;;;;;;4.47;1.75;;;;;;;21.54;51.99;100594.25;2078483;28;20403;-71
2022/06/09 00:12:18;;;;;;;4.75;2.05;;;;;;;21.42;52.01;100593.72;2083345;28;20578;-71
2022/06/09 00:13:40;;;;;;;4.55;1.75;;;;;;;21.28;52.19;100590.59;2073509;28;20087;-72
2022/06/09 00:15:05;;;;;;;4.50;1.73;;;;;;;21.20;52.35;100598.00;2075155;28;20562;-72
2022/06/09 00:16:27;;;;;;;3.78;2.05;;;;;;;21.16;52.31;100592.78;2086361;28;20143;-72
2022/06/09 00:17:51;;;;;;;2.55;1.88;;;;;;;21.08;52.56;100599.22;2071892;28;20125;-71
2022/06/09 00:19:16;;;;;;;4.75;1.92;;;;;;;21.01;52.75;100594.94;2075214;28;20045;-71
2022/06/09 00:20:37;;;;;;;4.60;2.00;;;;;;;20.94;52.84;100595.19;2078073;28;20052;-72
2022/06/09 00:22:00;;;;;;;3.38;2.10;;;;;;;20.91;52.86;100585.44;2081516;28;20053;-71
2022/06/09 00:23:21;;;;;;;3.17;1.88;;;;;;;20.87;52.86;100589.09;2069600;28;20140;-71
2022/06/09 00:24:45;;;;;;;2.63;1.30;;;;;;;20.82;52.58;100585.69;2066737;28;20495;-71
2022/06/09 00:26:08;;;;;;;3.00;1.90;;;;;;;20.79;52.93;100587.59;2067192;28;20458;-72
2022/06/09 00:27:31;;;;;;;3.95;1.83;;;;;;;20.77;52.93;100582.25;2075192;28;20060;-72
2022/06/09 00:28:53;;;;;;;5.30;1.95;;;;;;;20.79;52.76;100585.78;2077628;28;20132;-72
2022/06/09 00:30:17;;;;;;;6.55;2.08;;;;;;;20.87;52.72;100578.38;2081998;28;20053;-72
2022/06/09 00:31:39;;;;;;;2.55;1.85;;;;;;;20.97;52.67;100584.38;2076902;28;20053;-71
2022/06/09 00:33:01;;;;;;;4.50;1.92;;;;;;;21.06;52.42;100579.63;2072397;28;20057;-72
2022/06/09 00:34:24;;;;;;;3.53;1.67;;;;;;;21.08;52.24;100575.06;2086200;28;20060;-71
2022/06/09 00:35:45;;;;;;;4.53;1.80;;;;;;;21.08;52.31;100579.53;2081314;28;20546;-72
2022/06/09 00:37:08;;;;;;;4.45;1.80;;;;;;;21.03;52.37;100584.19;2077246;28;20049;-72
2022/06/09 00:38:30;;;;;;;4.78;2.20;;;;;;;20.96;52.84;100583.47;2085749;28;20048;-71
2022/06/09 00:39:54;;;;;;;2.95;1.77;;;;;;;20.91;52.71;100580.06;2077479;28;20597;-72
2022/06/09 00:41:17;;;;;;;4.10;2.33;;;;;;;20.87;53.10;100580.22;2081707;28;20048;-72
2022/06/09 00:42:38;;;;;;;7.05;1.98;;;;;;;20.92;53.00;100583.63;2085670;28;20136;-72
2022/06/09 00:44:19;;;;;;;3.53;1.70;;;;;;;21.00;52.94;100581.59;2080302;28;20069;-72
2022/06/09 00:45:47;;;;;;;4.95;2.10;;;;;;;21.04;52.77;100570.72;2079906;28;20128;-72
2022/06/09 00:47:18;;;;;;;2.92;1.70;;;;;;;21.14;52.77;100573.97;2090144;28;20087;-71
2022/06/09 00:48:43;;;;;;;4.20;1.65;;;;;;;21.19;52.63;100577.47;2079534;28;20079;-72
2022/06/09 00:50:15;;;;;;;2.90;1.50;;;;;;;21.19;52.46;100577.47;2086211;28;20059;-72
2022/06/09 00:51:41;;;;;;;5.22;1.85;;;;;;;21.14;52.44;100576.66;2078061;28;20179;-72
2022/06/09 00:53:09;;;;;;;5.65;2.40;;;;;;;21.13;52.44;100582.09;2076612;28;20069;-72
2022/06/09 00:54:37;;;;;;;5.45;2.05;;;;;;;21.06;52.43;100574.25;2078390;28;20053;-71
2022/06/09 00:56:03;;;;;;;5.60;2.53;;;;;;;21.04;52.45;100577.88;2086387;28;20053;-72
2022/06/09 00:57:30;;;;;;;4.32;1.63;;;;;;;21.02;52.64;100579.72;2080094;28;20548;-71
2022/06/09 00:58:57;;;;;;;4.50;2.05;;;;;;;21.05;52.42;100572.47;2080255;28;20092;-72
2022/06/09 01:00:21;;;;;;;2.70;1.50;;;;;;;21.13;52.53;100580.31;2079092;28;20053;-72
2022/06/09 01:01:44;;;;;;;5.28;2.05;;;;;;;21.19;52.43;100571.22;2085999;28;20041;-72
2022/06/09 01:03:06;;;;;;;5.68;2.00;;;;;;;21.26;52.17;100573.66;2088302;28;20127;-71
2022/06/09 01:04:32;;;;;;;3.40;1.45;;;;;;;21.34;52.27;100573.41;2074997;28;20041;-71
2022/06/09 01:06:01;;;;;;;3.90;1.65;;;;;;;21.35;52.12;100576.03;2073611;28;20095;-72
2022/06/09 01:07:31;;;;;;;2.88;1.70;;;;;;;21.30;51.97;100575.31;2086593;28;20049;-72
2022/06/09 01:09:08;;;;;;;3.67;1.67;;;;;;;21.27;52.11;100571.81;2078509;28;20072;-73
2022/06/09 01:10:30;;;;;;;3.67;2.13;;;;;;;21.24;52.27;100580.88;2079911;28;20049;-72
2022/06/09 01:11:57;;;;;;;4.32;1.98;;;;;;;21.23;51.90;100564.81;2085190;28;20029;-71
2022/06/09 01:13:22;;;;;;;5.65;1.98;;;;;;;21.16;52.21;100564.13;2080024;28;20087;-72
2022/06/09 01:14:45;;;;;;;3.15;2.00;;;;;;;21.11;52.31;100566.03;2082884;28;20041;-72
2022/06/09 01:16:13;;;;;;;5.65;1.98;;;;;;;21.09;52.04;100565.19;2083497;28;20048;-71
2022/06/09 01:17:47;;;;;;;5.03;1.90;;;;;;;21.09;52.34;100567.88;2076677;28;20131;-71
2022/06/09 01:19:41;;;;;;;3.38;1.80;;;;;;;21.07;52.29;100567.03;2086544;28;20041;-72
2022/06/09 01:21:14;;;;;;;2.58;1.88;;;;;;;21.02;52.14;100560.94;2079936;28;20137;-71
2022/06/09 01:23:11;;;;;;;3.45;1.90;;;;;;;21.00;52.07;100558.28;2078679;28;20065;-71
2022/06/09 01:24:53;;;;;;;4.75;2.03;;;;;;;21.07;52.26;100564.34;2086833;28;20045;-71
2022/06/09 01:26:35;;;;;;;3.85;2.33;;;;;;;21.15;51.95;100561.44;2087260;28;20162;-72
2022/06/09 01:28:28;;;;;;;2.80;1.77;;;;;;;21.15;51.91;100556.94;2080076;28;20052;-71
2022/06/09 01:29:58;;;;;;;;;;;;;;;21.16;51.92;100561.44;2080495;28;20053;-71
2022/06/09 01:31:26;;;;;;;3.10;1.83;;;;;;;21.15;51.88;100554.25;2078555;28;20008;-71
2022/06/09 01:32:56;;;;;;;3.85;1.70;;;;;;;21.10;51.99;100553.53;2086792;28;20048;-71
2022/06/09 01:34:33;;;;;;;4.60;1.90;;;;;;;21.06;51.96;100551.88;2079984;28;20132;-71
2022/06/09 01:36:02;;;;;;;3.92;1.88;;;;;;;20.98;52.05;100554.81;2086125;28;20502;-71
2022/06/09 01:37:30;;;;;;;5.18;2.40;;;;;;;20.99;52.51;100550.31;2070093;28;20536;-71
2022/06/09 01:38:53;;;;;;;3.90;1.95;;;;;;;20.98;52.56;100549.44;2075594;28;20049;-71
2022/06/09 01:40:19;;;;;;;4.00;1.75;;;;;;;21.00;52.75;100552.94;2084696;28;20179;-71
2022/06/09 01:41:47;;;;;;;4.82;1.88;;;;;;;21.04;53.02;100553.72;2079671;28;20510;-72
2022/06/09 01:43:11;;;;;;;10.05;2.85;;;;;;;21.09;52.93;100549.09;2079563;28;20446;-71
2022/06/09 01:44:33;;;;;;;5.03;2.03;;;;;;;21.14;53.11;100549.81;2071307;28;20044;-71
2022/06/09 01:46:05;;;;;;;4.03;2.15;;;;;;;21.18;53.40;100551.53;2083855;28;20037;-71
2022/06/09 01:47:37;;;;;;;2.00;1.65;;;;;;;21.23;53.22;100549.56;2078853;28;20045;-71
2022/06/09 01:49:03;;;;;;;;;;;;;;;21.24;53.20;100539.72;2072337;28;20129;-71
2022/06/09 01:50:30;;;;;;;5.63;1.98;;;;;;;21.25;53.04;100552.22;2069031;28;19921;-71
2022/06/09 01:51:55;;;;;;;2.35;1.40;;;;;;;21.27;52.92;100556.59;2078228;28;20046;-71
2022/06/09 01:53:21;;;;;;;3.30;1.65;;;;;;;21.27;52.86;100547.66;2080031;28;20065;-71
2022/06/09 01:54:45;;;;;;;2.92;1.73;;;;;;;21.15;53.09;100548.91;2077941;28;20045;-71
2022/06/09 01:56:12;;;;;;;3.72;1.90;;;;;;;21.06;53.09;100557.25;2077318;28;20054;-71
2022/06/09 01:57:37;;;;;;;6.28;1.88;;;;;;;21.02;53.45;100560.94;2078059;28;20076;-71
2022/06/09 01:59:04;;;;;;;3.20;2.03;;;;;;;20.95;53.50;100554.88;2085074;28;20056;-72
2022/06/09 02:00:28;;;;;;;5.38;1.80;;;;;;;20.89;53.45;100554.19;2081945;28;20049;-72
2022/06/09 02:01:55;;;;;;;4.35;2.08;;;;;;;20.85;53.55;100558.78;2078227;28;20080;-71
2022/06/09 02:03:24;;;;;;;3.13;1.88;;;;;;;20.78;53.37;100551.84;2087882;28;20095;-71
2022/06/09 02:04:49;;;;;;;4.43;1.90;;;;;;;20.73;53.52;100548.41;2081471;28;20061;-71
2022/06/09 02:06:13;;;;;;;3.47;1.70;;;;;;;20.72;53.78;100551.13;2073176;28;20411;-71
2022/06/09 02:07:39;;;;;;;2.88;2.08;;;;;;;20.66;53.53;100552.19;2076898;28;20148;-72
2022/06/09 02:09:03;;;;;;;4.07;2.25;;;;;;;20.65;53.81;100551.31;2079396;28;20052;-71
2022/06/09 02:10:32;;;;;;;2.50;1.63;;;;;;;20.68;53.67;100550.31;2076528;28;20499;-71
2022/06/09 02:11:57;;;;;;;4.20;1.75;;;;;;;20.70;53.97;100553.84;2068689;28;20033;-71
2022/06/09 02:13:22;;;;;;;2.88;1.58;;;;;;;20.63;54.11;100550.47;2074683;28;20049;-71
2022/06/09 02:14:49;;;;;;;3.88;2.00;;;;;;;20.58;54.27;100544.38;2081334;28;20508;-71
2022/06/09 02:16:16;;;;;;;4.13;1.95;;;;;;;20.58;54.41;100544.38;2079465;28;20140;-72
2022/06/09 02:17:41;;;;;;;4.40;1.98;;;;;;;20.68;54.28;100543.16;2073042;28;20149;-72
2022/06/09 02:19:06;;;;;;;3.65;1.83;;;;;;;20.85;54.50;100542.69;2071043;28;20077;-72
2022/06/09 02:20:27;;;;;;;5.38;2.40;;;;;;;21.04;54.31;100540.31;2067446;28;20141;-71
2022/06/09 02:21:50;;;;;;;4.13;2.00;;;;;;;21.19;54.29;100541.69;2076756;28;20053;-72
2022/06/09 02:23:14;;;;;;;4.00;2.03;;;;;;;21.33;54.33;100548.34;2064982;28;20133;-72
2022/06/09 02:24:37;;;;;;;4.80;1.80;;;;;;;21.45;54.60;100539.91;2084737;28;20041;-72
2022/06/09 02:25:59;;;;;;;3.63;1.67;;;;;;;21.56;54.51;100538.66;2067378;28;20145;-71
2022/06/09 02:27:21;;;;;;;3.28;1.80;;;;;;;21.62;54.83;100547.41;2078626;28;20047;-71
2022/06/09 02:28:44;;;;;;;4.05;1.77;;;;;;;21.70;55.01;100547.16;2065149;28;20137;-71
2022/06/09 02:30:07;;;;;;;4.50;2.15;;;;;;;21.75;55.19;100540.69;2075988;28;20068;-72
2022/06/09 02:31:29;;;;;;;3.67;2.08;;;;;;;21.80;55.13;100544.09;2064870;28;20197;-71
2022/06/09 02:32:52;;;;;;;3.13;1.63;;;;;;;21.84;55.18;100543.06;2078256;28;20140;-72
2022/06/09 02:34:17;;;;;;;5.20;1.90;;;;;;;21.88;55.20;100546.53;2073037;28;20069;-71
2022/06/09 02:35:41;;;;;;;3.33;1.52;;;;;;;21.90;55.76;100550.03;2071824;28;20057;-71
2022/06/09 02:37:04;;;;;;;4.68;1.50;;;;;;;21.93;56.17;100552.63;2085546;28;20052;-71
2022/06/09 02:38:27;;;;;;;3.40;1.67;;;;;;;21.97;56.34;100548.06;2087781;28;20136;-72
2022/06/09 02:39:50;;;;;;;4.18;1.67;;;;;;;21.99;56.44;100543.53;2085803;28;20566;-71
2022/06/09 02:41:13;;;;;;;6.22;2.13;;;;;;;21.98;56.61;100545.31;2078808;28;20540;-72
2022/06/09 02:42:36;;;;;;;4.05;1.58;;;;;;;21.99;57.01;100554.28;2084299;28;20055;-71
2022/06/09 02:43:58;;;;;;;5.47;2.28;;;;;;;22.00;57.79;100559.56;2078494;28;20053;-71
2022/06/09 02:45:22;;;;;;;5.03;1.77;;;;;;;22.04;57.92;100558.56;2084242;28;20136;-72
2022/06/09 02:46:44;;;;;;;3.00;1.67;;;;;;;22.05;57.90;100554.06;2084058;28;20736;-71
2022/06/09 02:48:08;;;;;;;6.10;1.90;;;;;;;22.05;58.21;100548.69;2070406;28;20069;-71
2022/06/09 02:49:32;;;;;;;2.45;1.65;;;;;;;22.06;58.48;100553.09;2084458;28;20549;-72
2022/06/09 02:50:55;;;;;;;1.52;1.30;;;;;;;22.05;58.59;100554.94;2081037;28;20045;-72
2022/06/09 02:52:18;;;;;;;5.07;2.30;;;;;;;22.06;58.49;100547.72;2073378;28;20061;-72
2022/06/09 02:53:40;;;;;;;6.88;1.52;;;;;;;22.05;58.39;100548.69;2084376;28;20053;-71
2022/06/09 02:55:03;;;;;;;3.15;1.63;;;;;;;22.03;58.47;100556.78;2086478;28;20049;-71
2022/06/09 02:56:25;;;;;;;6.78;2.20;;;;;;;22.01;58.29;100550.56;2086879;28;20048;-72
2022/06/09 02:57:47;;;;;;;1.63;1.33;;;;;;;22.00;58.19;100546.13;2078669;28;20407;-72
2022/06/09 02:59:11;;;;;;;4.90;1.88;;;;;;;21.99;58.31;100544.38;2086687;28;20044;-71
2022/06/09 03:00:34;;;;;;;4.57;2.05;;;;;;;22.00;58.25;100547.94;2085636;28;20116;-71
2022/06/09 03:01:56;;;;;;;5.43;2.35;;;;;;;21.99;58.27;100544.38;2087787;28;20086;-72
2022/06/09 03:03:19;;;;;;;2.08;1.42;;;;;;;21.98;58.26;100548.00;2089292;28;20430;-71
2022/06/09 03:04:42;;;;;;;4.97;1.90;;;;;;;21.99;57.91;100541.69;2081049;28;20494;-72
2022/06/09 03:06:05;;;;;;;4.03;1.77;;;;;;;22.01;58.08;100538.94;2087006;28;20053;-71
2022/06/09 03:07:27;;;;;;;3.45;1.58;;;;;;;21.98;58.09;100547.13;2087460;28;20061;-71
2022/06/09 03:08:50;;;;;;;2.90;1.50;;;;;;;21.99;58.01;100548.91;2085279;28;20136;-71
2022/06/09 03:10:11;;;;;;;3.15;1.42;;;;;;;22.02;57.71;100543.41;2086596;28;20045;-71
2022/06/09 03:11:35;;;;;;;5.47;2.00;;;;;;;22.04;57.59;100545.13;2080194;28;20160;-71
2022/06/09 03:12:57;;;;;;;4.85;1.98;;;;;;;22.05;57.79;100552.25;2078331;28;20152;-71
2022/06/09 03:14:20;;;;;;;3.40;1.98;;;;;;;22.05;57.80;100546.88;2071100;28;20538;-71
2022/06/09 03:15:42;;;;;;;2.33;1.23;;;;;;;22.06;57.76;100553.09;2077605;28;20045;-71
2022/06/09 03:17:05;;;;;;;4.72;2.05;;;;;;;22.07;57.97;100553.06;2084896;28;20139;-71
2022/06/09 03:18:26;;;;;;;3.65;2.33;;;;;;;22.10;57.99;100544.91;2078493;28;20069;-71
2022/06/09 03:19:50;;;;;;;3.75;1.63;;;;;;;22.11;57.88;100546.66;2092849;28;20044;-71
2022/06/09 03:21:13;;;;;;;3.65;2.15;;;;;;;22.13;57.99;100536.69;2087379;28;20132;-72
2022/06/09 03:22:35;;;;;;;5.13;1.85;;;;;;;22.17;58.08;100540.19;2080932;28;20103;-71
2022/06/09 03:23:58;;;;;;;3.58;2.20;;;;;;;22.21;58.18;100548.06;2078095;28;20045;-71
2022/06/09 03:25:20;;;;;;;5.30;2.53;;;;;;;22.26;58.15;100548.78;2075218;28;20045;-71
2022/06/09 03:26:43;;;;;;;3.50;1.73;;;;;;;22.31;57.92;100553.13;2086693;28;20516;-71
2022/06/09 03:28:08;;;;;;;2.22;1.25;;;;;;;22.38;57.80;100554.66;2085241;28;20086;-72
2022/06/09 03:29:30;;;;;;;2.83;1.40;;;;;;;22.44;57.72;100552.63;2089186;28;20036;-71
2022/06/09 03:30:53;;;;;;;2.90;1.40;;;;;;;22.52;57.40;100558.59;2080560;28;20052;-71
2022/06/09 03:32:15;;;;;;;3.33;1.65;;;;;;;22.59;57.28;100559.25;2072989;28;20141;-71
2022/06/09 03:33:38;;;;;;;4.28;1.80;;;;;;;22.67;56.99;100560.72;2086510;28;20049;-72
2022/06/09 03:35:01;;;;;;;3.92;1.50;;;;;;;22.78;56.78;100562.16;2085842;28;20033;-71
2022/06/09 03:36:23;;;;;;;5.57;1.80;;;;;;;22.85;56.65;100567.25;2077850;28;20058;-71
2022/06/09 03:37:45;;;;;;;1.70;0.95;;;;;;;22.90;56.63;100567.97;2075654;28;20501;-71
2022/06/09 03:39:08;;;;;;;4.03;2.05;;;;;;;22.99;56.38;100562.22;2075208;28;20059;-72
2022/06/09 03:40:32;;;;;;;4.15;2.15;;;;;;;23.09;56.10;100567.25;2077381;28;20121;-71
2022/06/09 03:41:54;;;;;;;3.67;1.80;;;;;;;23.16;55.49;100571.47;2075830;28;20523;-71
2022/06/09 03:43:15;;;;;;;5.72;1.90;;;;;;;23.20;55.04;100573.97;2075229;28;20148;-71
2022/06/09 03:44:38;;;;;;;2.55;1.65;;;;;;;23.27;54.85;100574.59;2083508;28;20160;-71
2022/06/09 03:46:01;;;;;;;5.13;1.77;;;;;;;23.36;54.73;100579.66;2085046;28;20140;-72
2022/06/09 03:47:22;;;;;;;5.35;2.15;;;;;;;23.47;54.46;100572.03;2083273;28;20526;-72
2022/06/09 03:48:45;;;;;;;5.47;1.67;;;;;;;23.58;54.11;100582.38;2086089;28;20056;-71
2022/06/09 03:50:16;;;;;;;4.00;1.88;;;;;;;23.67;53.71;100577.50;2085664;28;20048;-71
2022/06/09 03:51:39;;;;;;;3.13;1.80;;;;;;;23.76;53.38;100573.53;2082229;28;20056;-71
2022/06/09 03:53:01;;;;;;;2.28;1.80;;;;;;;23.80;52.78;100570.66;2084878;28;21906;-71
2022/06/09 03:54:23;;;;;;;3.78;1.58;;;;;;;23.89;52.39;100579.28;2084167;28;20422;-71
2022/06/09 03:55:45;;;;;;;3.45;1.73;;;;;;;23.97;52.38;100575.31;2086013;28;20132;-71
2022/06/09 03:57:07;;;;;;;2.78;1.58;;;;;;;24.07;51.89;100579.38;2085990;28;20136;-72
2022/06/09 03:58:30;;;;;;;3.40;1.40;;;;;;;24.12;51.63;100574.66;2078203;28;20050;-72
2022/06/09 03:59:52;;;;;;;2.25;1.40;;;;;;;24.20;51.08;100577.06;2070781;28;20136;-72
2022/06/09 04:01:18;;;;;;;4.13;1.70;;;;;;;24.30;50.81;100573.00;2091564;28;20064;-72
2022/06/09 04:02:39;;;;;;;3.42;2.05;;;;;;;24.39;50.14;100580.72;2087755;28;20094;-71
2022/06/09 04:04:02;;;;;;;4.70;1.75;;;;;;;24.47;49.91;100583.97;2086022;28;20051;-72
2022/06/09 04:05:25;;;;;;;5.45;1.90;;;;;;;24.59;49.85;100580.69;2084067;28;20140;-71
2022/06/09 04:06:48;;;;;;;4.03;1.67;;;;;;;24.69;49.77;100583.84;2084609;28;20049;-72
2022/06/09 04:08:12;;;;;;;3.60;1.77;;;;;;;24.81;49.46;100582.44;2085239;28;20137;-71
2022/06/09 04:09:34;;;;;;;3.83;1.55;;;;;;;24.90;49.64;100582.03;2094365;28;20052;-72
2022/06/09 04:10:57;;;;;;;4.85;1.80;;;;;;;25.04;49.44;100579.56;2083056;28;20261;-71
2022/06/09 04:12:19;;;;;;;5.50;2.20;;;;;;;25.17;49.38;100586.13;2083328;28;20557;-72
2022/06/09 04:13:42;;;;;;;2.58;1.20;;;;;;;25.26;48.63;100574.03;2085990;28;20500;-71
2022/06/09 04:15:05;;;;;;;3.55;1.48;;;;;;;25.38;48.45;100579.72;2086149;28;20546;-73
2022/06/09 04:16:30;;;;;;;2.97;1.40;;;;;;;25.54;48.52;100585.22;2077956;28;20133;-71
2022/06/09 04:17:53;;;;;;;4.10;1.52;;;;;;;25.66;48.34;100586.50;2072006;28;20080;-71
2022/06/09 04:19:18;;;;;;;4.00;1.70;;;;;;;25.78;48.08;100584.06;2073761;28;20040;-71
2022/06/09 04:20:42;;;;;;;3.67;1.65;;;;;;;25.93;48.49;100579.69;2092188;28;20044;-72
2022/06/09 04:22:06;;;;;;;4.13;1.70;;;;;;;26.14;48.20;100584.00;2079104;28;20096;-71
2022/06/09 04:23:28;;;;;;;3.65;1.63;;;;;;;26.31;48.23;100582.31;2078522;28;20054;-71
2022/06/09 04:24:51;;;;;;;3.05;1.73;;;;;;;26.46;47.78;100576.94;2077350;28;20144;-72
2022/06/09 04:26:17;;;;;;;3.90;1.95;;;;;;;26.68;47.67;100586.63;2077868;28;20132;-72
2022/06/09 04:27:40;;;;;;;2.72;1.45;;;;;;;26.80;47.59;100578.72;2083463;28;20049;-72
2022/06/09 04:29:04;;;;;;;3.92;1.25;;;;;;;26.99;47.27;100584.03;2086068;28;20057;-73
2022/06/09 04:30:27;;;;;;;3.55;1.60;;;;;;;27.21;47.18;100586.44;2086212;28;20479;-72
2022/06/09 04:31:49;;;;;;;2.17;1.25;;;;;;;27.40;46.71;100581.72;2084749;28;20150;-72
2022/06/09 04:33:12;;;;;;;5.47;2.00;;;;;;;27.63;46.45;100585.88;2078388;28;20042;-73
2022/06/09 04:34:34;;;;;;;4.82;1.65;;;;;;;27.76;46.01;100585.03;2069592;28;20092;-71
2022/06/09 04:35:59;;;;;;;2.28;1.75;;;;;;;27.92;45.50;100589.59;2085808;28;20029;-72
2022/06/09 04:37:59;;;;;;;5.15;1.80;;;;;;;28.02;45.50;100575.41;2080201;28;20115;-72
2022/06/09 04:39:03;;;;;;;;;;;;;;;28.16;44.45;100580.00;2080539;28;20045;-72
2022/06/09 04:40:27;;;;;;;5.38;1.45;;;;;;;28.33;44.67;100582.59;2068859;28;19993;-72
2022/06/09 04:41:49;;;;;;;2.20;1.40;;;;;;;28.51;44.36;100583.31;2075066;28;20132;-71
2022/06/09 04:43:13;;;;;;;3.38;1.30;;;;;;;28.68;44.09;100585.88;2077625;28;20415;-71
2022/06/09 04:44:36;;;;;;;3.03;1.42;;;;;;;28.87;43.72;100591.06;2077871;28;20169;-72
2022/06/09 04:45:58;;;;;;;2.92;1.50;;;;;;;29.07;43.34;100587.06;2080813;28;20473;-71
2022/06/09 04:47:21;;;;;;;4.18;1.50;;;;;;;29.26;42.89;100593.94;2082938;28;20041;-72
2022/06/09 04:48:44;;;;;;;3.35;1.52;;;;;;;29.45;42.58;100592.78;2085750;28;20465;-72
2022/06/09 04:50:07;;;;;;;4.07;1.30;;;;;;;29.64;42.07;100601.47;2077618;28;20099;-71
2022/06/09 04:51:32;;;;;;;3.30;1.60;;;;;;;29.90;41.57;100600.63;2078897;28;20134;-71
2022/06/09 04:52:55;;;;;;;2.88;1.38;;;;;;;30.18;41.38;100596.06;2074633;28;20049;-71
2022/06/09 04:54:17;;;;;;;5.78;1.73;;;;;;;30.33;40.68;100592.25;2086499;28;20052;-72
2022/06/09 04:55:41;;;;;;;4.93;1.52;;;;;;;30.57;40.46;100601.50;2079812;28;20104;-71
2022/06/09 04:57:04;;;;;;;5.40;1.80;;;;;;;30.80;40.18;100602.59;2083448;28;20571;-72
2022/06/09 04:58:26;;;;;;;2.40;1.33;;;;;;;31.02;39.73;100593.75;2069336;28;20591;-72
2022/06/09 04:59:48;;;;;;;3.08;1.35;;;;;;;31.13;39.45;100596.59;2083953;28;20080;-71
2022/06/09 05:01:18;;;;;;;2.70;1.42;;;;;;;31.18;39.27;100592.56;2086320;28;20508;-72
2022/06/09 05:02:41;;;;;;;7.60;1.40;;;;;;;31.11;39.41;100595.84;2084765;28;20053;-71
2022/06/09 05:04:04;;;;;;;3.17;1.63;;;;;;;31.15;39.01;100595.53;2085943;28;20171;-72
2022/06/09 05:05:29;;;;;;;3.33;1.88;;;;;;;31.19;38.89;100596.16;2077762;28;20053;-72
2022/06/09 05:06:53;;;;;;;3.35;1.40;;;;;;;31.27;39.19;100597.34;2088073;28;20106;-72
2022/06/09 05:08:16;;;;;;;5.43;1.65;;;;;;;31.31;39.26;100594.41;2090704;28;20102;-72
2022/06/09 05:09:39;;;;;;;2.50;1.33;;;;;;;31.44;38.99;100587.91;2085852;28;20045;-72
2022/06/09 05:11:01;;;;;;;4.60;1.70;;;;;;;31.56;38.33;100587.03;2079998;28;20046;-72
2022/06/09 05:12:23;;;;;;;1.60;1.15;;;;;;;31.58;38.57;100585.03;2080813;28;20456;-71
2022/06/09 05:13:46;;;;;;;2.75;1.33;;;;;;;31.55;38.08;100585.28;2084763;28;20045;-72
2022/06/09 05:15:12;;;;;;;1.80;1.27;;;;;;;31.64;38.03;100587.31;2077298;28;20041;-71
2022/06/09 05:16:35;;;;;;;5.20;1.73;;;;;;;31.73;37.58;100593.09;2085790;28;20079;-72
2022/06/09 05:17:58;;;;;;;2.85;1.42;;;;;;;31.87;37.25;100587.47;2084296;28;20741;-72
2022/06/09 05:19:20;;;;;;;3.25;1.48;;;;;;;32.05;37.07;100588.78;2084258;28;20084;-72
2022/06/09 05:20:43;;;;;;;3.10;1.13;;;;;;;32.18;36.89;100592.34;2079611;28;20516;-72
2022/06/09 05:22:07;;;;;;;3.97;1.63;;;;;;;32.29;36.83;100591.53;2075180;28;20053;-72
2022/06/09 05:23:30;;;;;;;3.30;1.40;;;;;;;32.49;36.18;100592.72;2079971;28;20498;-73
2022/06/09 05:24:57;;;;;;;2.67;1.40;;;;;;;32.61;35.58;100587.16;2077583;28;20053;-73
2022/06/09 05:26:21;;;;;;;2.92;1.42;;;;;;;32.68;35.28;100590.31;2081515;28;20037;-72
2022/06/09 05:27:44;;;;;;;4.68;1.42;;;;;;;32.79;34.93;100598.53;2093679;28;20383;-72
2022/06/09 05:29:06;;;;;;;2.75;1.40;;;;;;;32.86;34.82;100597.03;2088164;28;20052;-73
2022/06/09 05:30:28;;;;;;;4.25;1.95;;;;;;;32.94;34.26;100593.69;2071668;28;20062;-73
2022/06/09 05:31:51;;;;;;;3.72;1.38;;;;;;;33.07;34.01;100595.31;2079395;28;20092;-74
2022/06/09 05:33:14;;;;;;;3.83;1.50;;;;;;;33.28;33.57;100591.88;2076665;28;20142;-73
2022/06/09 05:34:36;;;;;;;4.55;1.30;;;;;;;33.29;32.74;100596.31;2076686;28;20836;-71
2022/06/09 05:36:00;;;;;;;6.43;1.42;;;;;;;33.18;32.35;100581.63;2085003;28;20068;-71
2022/06/09 05:37:23;;;;;;;6.13;1.20;;;;;;;33.22;32.19;100583.13;2083593;28;20137;-72
2022/06/09 05:45:25;;;;;;;2.78;1.17;;;;;;;33.70;31.77;100593.78;2086045;28;20052;-73
2022/06/09 05:46:48;;;;;;;2.33;1.20;;;;;;;33.72;31.87;100583.59;2081154;28;20041;-72
2022/06/09 05:48:10;;;;;;;4.95;1.13;;;;;;;33.69;31.56;100583.81;2080831;28;20048;-72
2022/06/09 05:49:32;;;;;;;3.03;1.40;;;;;;;33.72;31.80;100586.34;2089607;28;20131;-74
2022/06/09 05:50:56;;;;;;;2.55;1.30;;;;;;;33.95;31.70;100587.13;2079855;28;20515;-73
2022/06/09 05:52:22;;;;;;;3.35;1.38;;;;;;;34.00;31.08;100580.25;2083325;28;20049;-72
2022/06/09 05:53:47;;;;;;;6.25;1.58;;;;;;;34.07;30.50;100575.13;2084090;28;20139;-72
2022/06/09 05:55:10;;;;;;;4.22;1.30;;;;;;;34.19;30.65;100585.06;2072351;28;20403;-72
2022/06/09 05:56:33;;;;;;;3.30;1.27;;;;;;;34.39;30.68;100577.88;2080228;28;20041;-73
2022/06/09 05:57:54;;;;;;;2.75;1.02;;;;;;;34.56;30.51;100581.88;2084302;28;20124;-72
2022/06/09 05:59:17;;;;;;;2.25;1.10;;;;;;;34.65;30.27;100584.69;2084588;28;20591;-73
2022/06/09 06:00:41;;;;;;;5.72;1.00;;;;;;;34.68;30.44;100584.41;2083570;28;20576;-73
2022/06/09 06:02:05;;;;;;;2.55;1.33;;;;;;;34.71;30.26;100586.94;2085654;28;20049;-73
2022/06/09 06:03:29;;;;;;;5.70;1.65;;;;;;;34.77;30.15;100583.66;2085082;28;20079;-73
2022/06/09 06:04:52;;;;;;;4.65;1.30;;;;;;;34.79;30.03;100584.34;2077129;28;20045;-73
2022/06/09 06:07:54;;;;;;;3.50;1.55;;;;;;;34.93;30.17;100588.63;2079683;28;20073;-73
2022/06/09 06:09:21;;;;;;;6.55;1.60;;;;;;;35.06;29.68;100591.13;2077147;28;20034;-73
2022/06/09 06:10:44;;;;;;;3.97;1.25;;;;;;;35.16;29.68;100590.19;2085896;28;20041;-73
2022/06/09 06:12:08;;;;;;;2.63;1.52;;;;;;;35.18;29.46;100601.88;2081098;28;20554;-73
2022/06/09 06:13:30;;;;;;;1.77;1.27;;;;;;;34.91;29.64;100601.63;2069173;28;20560;-73
2022/06/09 06:14:53;;;;;;;3.35;1.27;;;;;;;34.94;29.72;100604.09;2074528;28;20038;-72
2022/06/09 06:16:15;;;;;;;2.22;1.20;;;;;;;35.06;29.33;100592.00;2068836;28;20082;-73
2022/06/09 06:17:38;;;;;;;3.38;1.20;;;;;;;35.28;29.04;100601.97;2079887;28;20041;-72
2022/06/09 06:19:01;;;;;;;2.55;1.20;;;;;;;35.38;28.94;100600.13;2076995;28;20042;-73
2022/06/09 06:20:24;;;;;;;4.03;1.33;;;;;;;35.49;29.05;100599.16;2077643;28;20398;-73
2022/06/09 06:21:48;;;;;;;2.83;1.10;;;;;;;35.62;28.99;100598.91;2085445;28;20128;-72
2022/06/09 06:23:11;;;;;;;4.50;1.20;;;;;;;35.69;28.97;100594.59;2078275;28;20045;-73
2022/06/09 06:24:36;;;;;;;4.47;1.30;;;;;;;35.77;28.71;100592.03;2077169;28;20048;-72
2022/06/09 06:25:58;;;;;;;1.00;0.90;;;;;;;35.71;28.70;100584.38;2078234;28;20076;-73
2022/06/09 06:27:21;;;;;;;2.55;1.40;;;;;;;35.65;28.79;100579.38;2073618;28;20112;-73
2022/06/09 06:28:43;;;;;;;3.28;1.35;;;;;;;35.46;28.86;100583.81;2074635;28;20056;-74
2022/06/09 06:30:07;;;;;;;2.03;0.98;;;;;;;35.17;29.13;100583.72;2084968;28;20388;-74
2022/06/09 06:31:30;;;;;;;3.50;1.27;;;;;;;34.96;29.37;100579.25;2087542;28;20049;-73
2022/06/09 06:32:55;;;;;;;3.20;1.30;;;;;;;34.95;29.69;100591.25;2077986;28;20439;-74
2022/06/09 06:34:20;;;;;;;4.93;1.30;;;;;;;35.00;29.95;100584.34;2083177;28;20049;-73
2022/06/09 06:35:42;;;;;;;1.95;1.08;;;;;;;35.05;29.77;100583.94;2091631;28;20048;-71
2022/06/09 06:37:05;;;;;;;1.63;1.10;;;;;;;34.96;29.72;100590.25;2076640;28;20061;-74
2022/06/09 06:38:27;;;;;;;1.75;1.10;;;;;;;34.94;29.69;100587.63;2074421;28;20112;-72
2022/06/09 06:39:54;;;;;;;1.88;1.17;;;;;;;34.99;29.79;100593.56;2073787;28;20041;-72
2022/06/09 06:41:17;;;;;;;2.97;1.40;;;;;;;35.06;29.89;100586.53;2081621;28;20116;-72
2022/06/09 06:42:40;;;;;;;3.47;1.15;;;;;;;35.07;30.01;100591.00;2070148;28;20041;-71